sensor_id;sensor_type;location;lat;lon;timestamp;pressure;altitude;pressure_sealevel;temperature;humidity
43312;BME280;30041;48.300;16.352;2023-04-23T00:02:00;99215.88;;;23.90;40.50
43312;BME280;30041;48.300;16.352;2023-04-23T00:04:27;99214.22;;;23.89;40.72
43312;BME280;30041;48.300;16.352;2023-04-23T00:06:53;99213.97;;;23.85;40.58
43312;BME280;30041;48.300;16.352;2023-04-23T00:09:21;99222.34;;;23.89;40.70
43312;BME280;30041;48.300;16.352;2023-04-23T00:11:47;99211.25;;;23.85;40.90
43312;BME280;30041;48.300;16.352;2023-04-23T00:14:13;99211.81;;;23.87;40.70
43312;BME280;30041;48.300;16.352;2023-04-23T00:16:39;99206.66;;;23.86;40.77
43312;BME280;30041;48.300;16.352;2023-04-23T00:19:05;99211.78;;;23.82;40.89
43312;BME280;30041;48.300;16.352;2023-04-23T00:21:30;99204.19;;;23.84;40.96
43312;BME280;30041;48.300;16.352;2023-04-23T00:23:56;99205.81;;;23.80;40.96
43312;BME280;30041;48.300;16.352;2023-04-23T00:26:21;99203.66;;;23.82;41.07
43312;BME280;30041;48.300;16.352;2023-04-23T00:28:47;99202.56;;;23.78;41.02
43312;BME280;30041;48.300;16.352;2023-04-23T00:31:12;99197.16;;;23.78;40.99
43312;BME280;30041;48.300;16.352;2023-04-23T00:33:38;99197.16;;;23.78;41.01
43312;BME280;30041;48.300;16.352;2023-04-23T00:36:03;99195.25;;;23.78;40.74
43312;BME280;30041;48.300;16.352;2023-04-23T00:38:29;99196.84;;;23.74;41.01
43312;BME280;30041;48.300;16.352;2023-04-23T00:40:54;99199.03;;;23.77;41.08
43312;BME280;30041;48.300;16.352;2023-04-23T00:43:20;99189.81;;;23.73;40.95
43312;BME280;30041;48.300;16.352;2023-04-23T00:45:46;99194.38;;;23.73;41.05
43312;BME280;30041;48.300;16.352;2023-04-23T00:48:12;99188.97;;;23.73;41.25
43312;BME280;30041;48.300;16.352;2023-04-23T00:50:38;99191.13;;;23.71;41.24
43312;BME280;30041;48.300;16.352;2023-04-23T00:53:04;99195.72;;;23.70;41.39
43312;BME280;30041;48.300;16.352;2023-04-23T00:55:29;99184.09;;;23.70;41.18
43312;BME280;30041;48.300;16.352;2023-04-23T00:57:55;99190.31;;;23.70;41.00
43312;BME280;30041;48.300;16.352;2023-04-23T01:00:21;99179.50;;;23.70;41.16
43312;BME280;30041;48.300;16.352;2023-04-23T01:02:47;99185.16;;;23.69;41.27
43312;BME280;30041;48.300;16.352;2023-04-23T01:05:15;99177.03;;;23.69;40.92
43312;BME280;30041;48.300;16.352;2023-04-23T01:07:43;99183.00;;;23.71;41.08
43312;BME280;30041;48.300;16.352;2023-04-23T01:10:10;99179.75;;;23.69;41.11
43312;BME280;30041;48.300;16.352;2023-04-23T01:12:35;99180.59;;;23.69;41.15
43312;BME280;30041;48.300;16.352;2023-04-23T01:15:02;99184.34;;;23.68;41.41
43312;BME280;30041;48.300;16.352;2023-04-23T01:17:28;99184.91;;;23.70;41.26
43312;BME280;30041;48.300;16.352;2023-04-23T01:19:54;99186.25;;;23.68;41.12
43312;BME280;30041;48.300;16.352;2023-04-23T01:22:20;99191.66;;;23.68;41.06
43312;BME280;30041;48.300;16.352;2023-04-23T01:24:46;99184.63;;;23.67;41.23
43312;BME280;30041;48.300;16.352;2023-04-23T01:27:12;99183.00;;;23.66;41.50
43312;BME280;30041;48.300;16.352;2023-04-23T01:29:38;99181.66;;;23.68;41.22
43312;BME280;30041;48.300;16.352;2023-04-23T01:32:04;99188.41;;;23.66;41.42
43312;BME280;30041;48.300;16.352;2023-04-23T01:34:30;99181.09;;;23.66;41.17
43312;BME280;30041;48.300;16.352;2023-04-23T01:36:57;99183.53;;;23.68;41.14
43312;BME280;30041;48.300;16.352;2023-04-23T01:39:24;99187.06;;;23.68;41.12
43312;BME280;30041;48.300;16.352;2023-04-23T01:41:50;99181.94;;;23.67;41.23
43312;BME280;30041;48.300;16.352;2023-04-23T01:44:15;99177.56;;;23.66;41.27
43312;BME280;30041;48.300;16.352;2023-04-23T01:46:41;99184.06;;;23.65;41.48
43312;BME280;30041;48.300;16.352;2023-04-23T01:49:07;99184.88;;;23.65;41.12
43312;BME280;30041;48.300;16.352;2023-04-23T01:51:34;99177.84;;;23.64;41.37
43312;BME280;30041;48.300;16.352;2023-04-23T01:53:59;99178.38;;;23.66;41.29
43312;BME280;30041;48.300;16.352;2023-04-23T01:56:26;99180.53;;;23.64;41.03
43312;BME280;30041;48.300;16.352;2023-04-23T01:58:52;99184.06;;;23.65;41.22
43312;BME280;30041;48.300;16.352;2023-04-23T02:01:18;99184.06;;;23.65;41.22
43312;BME280;30041;48.300;16.352;2023-04-23T02:03:44;99184.63;;;23.67;41.35
43312;BME280;30041;48.300;16.352;2023-04-23T02:06:10;99186.50;;;23.66;41.25
43312;BME280;30041;48.300;16.352;2023-04-23T02:08:37;99184.06;;;23.65;41.30
43312;BME280;30041;48.300;16.352;2023-04-23T02:11:04;99187.84;;;23.63;41.14
43312;BME280;30041;48.300;16.352;2023-04-23T02:13:30;99198.16;;;23.67;41.33
43312;BME280;30041;48.300;16.352;2023-04-23T02:15:55;99189.22;;;23.66;41.10
43312;BME280;30041;48.300;16.352;2023-04-23T02:18:20;99185.69;;;23.66;41.43
43312;BME280;30041;48.300;16.352;2023-04-23T02:20:46;99183.25;;;23.64;41.22
43312;BME280;30041;48.300;16.352;2023-04-23T02:23:12;99179.47;;;23.65;41.36
43312;BME280;30041;48.300;16.352;2023-04-23T02:25:37;99177.56;;;23.66;41.38
43312;BME280;30041;48.300;16.352;2023-04-23T02:28:04;99180.28;;;23.66;41.14
43312;BME280;30041;48.300;16.352;2023-04-23T02:30:29;99181.38;;;23.65;41.33
43312;BME280;30041;48.300;16.352;2023-04-23T02:32:55;99184.34;;;23.63;41.03
43312;BME280;30041;48.300;16.352;2023-04-23T02:35:20;99182.19;;;23.65;41.27
43312;BME280;30041;48.300;16.352;2023-04-23T02:37:46;99177.56;;;23.66;41.37
43312;BME280;30041;48.300;16.352;2023-04-23T02:40:11;99184.88;;;23.65;41.00
43312;BME280;30041;48.300;16.352;2023-04-23T02:42:37;99184.34;;;23.63;41.12
43312;BME280;30041;48.300;16.352;2023-04-23T02:45:02;99184.34;;;23.63;41.22
43312;BME280;30041;48.300;16.352;2023-04-23T02:47:28;99179.97;;;23.62;41.15
43312;BME280;30041;48.300;16.352;2023-04-23T02:49:53;99179.97;;;23.62;41.39
43312;BME280;30041;48.300;16.352;2023-04-23T02:52:19;99183.53;;;23.62;41.30
43312;BME280;30041;48.300;16.352;2023-04-23T02:54:44;99189.75;;;23.63;41.07
43312;BME280;30041;48.300;16.352;2023-04-23T02:57:10;99177.28;;;23.62;41.29
43312;BME280;30041;48.300;16.352;2023-04-23T02:59:35;99186.22;;;23.62;41.14
43312;BME280;30041;48.300;16.352;2023-04-23T03:02:01;99184.59;;;23.61;41.30
43312;BME280;30041;48.300;16.352;2023-04-23T03:04:26;99182.69;;;23.62;41.36
43312;BME280;30041;48.300;16.352;2023-04-23T03:06:52;99178.38;;;23.61;41.09
43312;BME280;30041;48.300;16.352;2023-04-23T03:09:17;99185.41;;;23.62;41.24
43312;BME280;30041;48.300;16.352;2023-04-23T03:11:43;99185.41;;;23.62;41.50
43312;BME280;30041;48.300;16.352;2023-04-23T03:14:08;99179.97;;;23.62;41.13
43312;BME280;30041;48.300;16.352;2023-04-23T03:16:34;99184.59;;;23.61;41.22
43312;BME280;30041;48.300;16.352;2023-04-23T03:18:59;99187.28;;;23.61;41.02
43312;BME280;30041;48.300;16.352;2023-04-23T03:21:25;99181.88;;;23.61;41.31
43312;BME280;30041;48.300;16.352;2023-04-23T03:23:51;99182.44;;;23.63;41.09
43312;BME280;30041;48.300;16.352;2023-04-23T03:26:16;99189.19;;;23.61;41.16
43312;BME280;30041;48.300;16.352;2023-04-23T03:28:42;99184.59;;;23.61;41.36
43312;BME280;30041;48.300;16.352;2023-04-23T03:31:07;99187.03;;;23.63;41.37
43312;BME280;30041;48.300;16.352;2023-04-23T03:33:33;99187.03;;;23.63;41.23
43312;BME280;30041;48.300;16.352;2023-04-23T03:35:58;99191.88;;;23.61;41.45
43312;BME280;30041;48.300;16.352;2023-04-23T03:38:23;99186.22;;;23.62;41.16
43312;BME280;30041;48.300;16.352;2023-04-23T03:40:49;99189.19;;;23.61;41.36
43312;BME280;30041;48.300;16.352;2023-04-23T03:43:14;99192.97;;;23.60;41.40
43312;BME280;30041;48.300;16.352;2023-04-23T03:45:40;99202.16;;;23.59;41.26
43312;BME280;30041;48.300;16.352;2023-04-23T03:48:05;99198.41;;;23.60;41.27
43312;BME280;30041;48.300;16.352;2023-04-23T03:50:31;99199.47;;;23.59;41.50
43312;BME280;30041;48.300;16.352;2023-04-23T03:52:56;99198.66;;;23.58;41.46
43312;BME280;30041;48.300;16.352;2023-04-23T03:55:22;99197.56;;;23.59;41.30
43312;BME280;30041;48.300;16.352;2023-04-23T03:57:47;99200.00;;;23.61;41.44
43312;BME280;30041;48.300;16.352;2023-04-23T04:00:13;99196.50;;;23.60;41.15
43312;BME280;30041;48.300;16.352;2023-04-23T04:02:39;99203.25;;;23.58;41.38
43312;BME280;30041;48.300;16.352;2023-04-23T04:05:05;99215.44;;;23.60;41.23
43312;BME280;30041;48.300;16.352;2023-04-23T04:07:31;99202.72;;;23.61;41.29
43312;BME280;30041;48.300;16.352;2023-04-23T04:09:56;99209.75;;;23.62;41.35
43312;BME280;30041;48.300;16.352;2023-04-23T04:12:22;99201.34;;;23.58;41.17
43312;BME280;30041;48.300;16.352;2023-04-23T04:14:47;99202.97;;;23.59;41.42
43312;BME280;30041;48.300;16.352;2023-04-23T04:17:13;99211.09;;;23.59;41.34
43312;BME280;30041;48.300;16.352;2023-04-23T04:19:38;99217.34;;;23.60;41.19
43312;BME280;30041;48.300;16.352;2023-04-23T04:22:04;99217.03;;;23.61;41.26
43312;BME280;30041;48.300;16.352;2023-04-23T04:24:29;99216.50;;;23.59;41.37
43312;BME280;30041;48.300;16.352;2023-04-23T04:26:55;99220.03;;;23.60;41.32
43312;BME280;30041;48.300;16.352;2023-04-23T04:29:20;99226.50;;;23.59;41.51
43312;BME280;30041;48.300;16.352;2023-04-23T04:31:46;99223.00;;;23.58;41.39
43312;BME280;30041;48.300;16.352;2023-04-23T04:34:12;99229.22;;;23.59;41.44
43312;BME280;30041;48.300;16.352;2023-04-23T04:36:38;99230.00;;;23.59;41.33
43312;BME280;30041;48.300;16.352;2023-04-23T04:39:03;99228.41;;;23.58;41.38
43312;BME280;30041;48.300;16.352;2023-04-23T04:41:29;99230.84;;;23.60;41.30
43312;BME280;30041;48.300;16.352;2023-04-23T04:43:54;99234.38;;;23.60;41.46
43312;BME280;30041;48.300;16.352;2023-04-23T04:46:20;99238.97;;;23.60;41.49
43312;BME280;30041;48.300;16.352;2023-04-23T04:48:46;99229.22;;;23.59;41.07
43312;BME280;30041;48.300;16.352;2023-04-23T04:51:12;99240.84;;;23.59;41.44
43312;BME280;30041;48.300;16.352;2023-04-23T04:53:38;99237.06;;;23.60;41.46
43312;BME280;30041;48.300;16.352;2023-04-23T04:56:03;99246.25;;;23.59;41.52
43312;BME280;30041;48.300;16.352;2023-04-23T04:58:29;99249.78;;;23.60;41.37
43312;BME280;30041;48.300;16.352;2023-04-23T05:00:54;99243.28;;;23.61;41.36
43312;BME280;30041;48.300;16.352;2023-04-23T05:03:20;99253.03;;;23.62;41.43
43312;BME280;30041;48.300;16.352;2023-04-23T05:05:46;99248.69;;;23.61;41.15
43312;BME280;30041;48.300;16.352;2023-04-23T05:08:12;99252.22;;;23.61;41.66
43312;BME280;30041;48.300;16.352;2023-04-23T05:10:37;99253.81;;;23.57;41.61
43312;BME280;30041;48.300;16.352;2023-04-23T05:13:03;99255.19;;;23.60;41.25
43312;BME280;30041;48.300;16.352;2023-04-23T05:15:28;99254.66;;;23.63;41.39
43312;BME280;30041;48.300;16.352;2023-04-23T05:17:54;99249.50;;;23.61;41.64
43312;BME280;30041;48.300;16.352;2023-04-23T05:20:20;99254.38;;;23.59;41.31
43312;BME280;30041;48.300;16.352;2023-04-23T05:22:46;99250.59;;;23.60;41.29
43312;BME280;30041;48.300;16.352;2023-04-23T05:25:11;99262.75;;;23.58;41.65
43312;BME280;30041;48.300;16.352;2023-04-23T05:27:37;99259.78;;;23.59;41.47
43312;BME280;30041;48.300;16.352;2023-04-23T05:30:05;99258.72;;;23.60;41.38
43312;BME280;30041;48.300;16.352;2023-04-23T05:32:31;99265.47;;;23.58;41.35
43312;BME280;30041;48.300;16.352;2023-04-23T05:34:58;99255.19;;;23.60;41.49
43312;BME280;30041;48.300;16.352;2023-04-23T05:37:23;99262.47;;;23.59;41.39
43312;BME280;30041;48.300;16.352;2023-04-23T05:39:49;99273.84;;;23.61;41.62
43312;BME280;30041;48.300;16.352;2023-04-23T05:42:14;99272.50;;;23.64;41.23
43312;BME280;30041;48.300;16.352;2023-04-23T05:44:40;99272.50;;;23.64;41.49
43312;BME280;30041;48.300;16.352;2023-04-23T05:47:05;99264.41;;;23.64;41.69
43312;BME280;30041;48.300;16.352;2023-04-23T05:49:31;99273.28;;;23.59;41.71
43312;BME280;30041;48.300;16.352;2023-04-23T05:51:56;99279.00;;;23.63;41.51
43312;BME280;30041;48.300;16.352;2023-04-23T05:54:21;99274.66;;;23.62;41.33
43312;BME280;30041;48.300;16.352;2023-04-23T05:56:47;99275.22;;;23.64;41.42
43312;BME280;30041;48.300;16.352;2023-04-23T05:59:12;99279.25;;;23.61;41.33
43312;BME280;30041;48.300;16.352;2023-04-23T06:01:38;99271.97;;;23.62;41.61
43312;BME280;30041;48.300;16.352;2023-04-23T06:04:03;99280.91;;;23.62;41.59
43312;BME280;30041;48.300;16.352;2023-04-23T06:06:29;99275.22;;;23.64;41.65
43312;BME280;30041;48.300;16.352;2023-04-23T06:08:54;99279.00;;;23.63;41.76
43312;BME280;30041;48.300;16.352;2023-04-23T06:11:20;99276.31;;;23.63;41.28
43312;BME280;30041;48.300;16.352;2023-04-23T06:13:45;99277.38;;;23.62;41.76
43312;BME280;30041;48.300;16.352;2023-04-23T06:16:11;99279.31;;;23.67;41.68
43312;BME280;30041;48.300;16.352;2023-04-23T06:18:36;99282.53;;;23.63;41.75
43312;BME280;30041;48.300;16.352;2023-04-23T06:21:02;99286.03;;;23.64;41.44
43312;BME280;30041;48.300;16.352;2023-04-23T06:23:27;99280.63;;;23.64;41.46
43312;BME280;30041;48.300;16.352;2023-04-23T06:25:53;99278.47;;;23.66;41.68
43312;BME280;30041;48.300;16.352;2023-04-23T06:28:18;99284.97;;;23.65;41.66
43312;BME280;30041;48.300;16.352;2023-04-23T06:30:44;99281.47;;;23.65;41.50
43312;BME280;30041;48.300;16.352;2023-04-23T06:33:09;99285.53;;;23.67;41.49
43312;BME280;30041;48.300;16.352;2023-04-23T06:35:35;99283.34;;;23.64;41.46
43312;BME280;30041;48.300;16.352;2023-04-23T06:38:00;99281.19;;;23.66;41.67
43312;BME280;30041;48.300;16.352;2023-04-23T06:40:26;99276.31;;;23.63;41.58
43312;BME280;30041;48.300;16.352;2023-04-23T06:42:52;99278.47;;;23.66;41.96
43312;BME280;30041;48.300;16.352;2023-04-23T06:45:17;99277.13;;;23.63;41.63
43312;BME280;30041;48.300;16.352;2023-04-23T06:47:43;99276.88;;;23.65;41.40
43312;BME280;30041;48.300;16.352;2023-04-23T06:50:08;99283.66;;;23.68;41.49
43312;BME280;30041;48.300;16.352;2023-04-23T06:52:34;99287.16;;;23.68;41.45
43312;BME280;30041;48.300;16.352;2023-04-23T06:55:00;99282.84;;;23.67;41.87
43312;BME280;30041;48.300;16.352;2023-04-23T06:57:26;99282.28;;;23.65;41.55
43312;BME280;30041;48.300;16.352;2023-04-23T06:59:52;99282.28;;;23.65;41.60
43312;BME280;30041;48.300;16.352;2023-04-23T07:02:17;99278.47;;;23.66;41.68
43312;BME280;30041;48.300;16.352;2023-04-23T07:04:43;99280.53;;;23.49;42.29
43312;BME280;30041;48.300;16.352;2023-04-23T07:07:08;99283.44;;;23.05;44.24
43312;BME280;30041;48.300;16.352;2023-04-23T07:09:34;99281.31;;;22.85;44.74
43312;BME280;30041;48.300;16.352;2023-04-23T07:11:59;99276.47;;;22.87;44.78
43312;BME280;30041;48.300;16.352;2023-04-23T07:14:25;99275.25;;;22.99;45.01
43312;BME280;30041;48.300;16.352;2023-04-23T07:16:50;99279.94;;;23.09;46.56
43312;BME280;30041;48.300;16.352;2023-04-23T07:19:16;99274.00;;;23.07;46.75
43312;BME280;30041;48.300;16.352;2023-04-23T07:21:41;99279.16;;;23.09;45.55
43312;BME280;30041;48.300;16.352;2023-04-23T07:24:07;99275.00;;;23.01;45.93
43312;BME280;30041;48.300;16.352;2023-04-23T07:26:33;99278.06;;;22.83;46.11
43312;BME280;30041;48.300;16.352;2023-04-23T07:28:59;99282.22;;;22.95;46.06
43312;BME280;30041;48.300;16.352;2023-04-23T07:31:24;99280.03;;;22.92;46.11
43312;BME280;30041;48.300;16.352;2023-04-23T07:33:50;99272.25;;;22.96;46.06
43312;BME280;30041;48.300;16.352;2023-04-23T07:36:15;99277.81;;;22.84;46.22
43312;BME280;30041;48.300;16.352;2023-04-23T07:38:41;99271.16;;;22.70;46.58
43312;BME280;30041;48.300;16.352;2023-04-23T07:41:07;99279.50;;;22.68;46.52
43312;BME280;30041;48.300;16.352;2023-04-23T07:43:33;99279.03;;;22.71;46.42
43312;BME280;30041;48.300;16.352;2023-04-23T07:45:58;99274.00;;;22.58;46.23
43312;BME280;30041;48.300;16.352;2023-04-23T07:48:24;99270.72;;;22.51;46.62
43312;BME280;30041;48.300;16.352;2023-04-23T07:50:49;99273.88;;;22.48;46.61
43312;BME280;30041;48.300;16.352;2023-04-23T07:53:15;99273.59;;;22.44;46.30
43312;BME280;30041;48.300;16.352;2023-04-23T07:55:40;99277.09;;;22.45;46.23
43312;BME280;30041;48.300;16.352;2023-04-23T07:58:06;99278.72;;;22.46;46.27
43312;BME280;30041;48.300;16.352;2023-04-23T08:00:32;99276.53;;;22.43;46.49
43312;BME280;30041;48.300;16.352;2023-04-23T08:02:57;99286.53;;;22.42;46.33
43312;BME280;30041;48.300;16.352;2023-04-23T08:05:23;99283.03;;;22.42;46.33
43312;BME280;30041;48.300;16.352;2023-04-23T08:07:49;99285.97;;;22.40;46.40
43312;BME280;30041;48.300;16.352;2023-04-23T08:10:14;99285.06;;;22.34;46.32
43312;BME280;30041;48.300;16.352;2023-04-23T08:12:40;99287.28;;;22.37;46.29
43312;BME280;30041;48.300;16.352;2023-04-23T08:15:05;99285.97;;;22.40;46.16
43312;BME280;30041;48.300;16.352;2023-04-23T08:17:31;99285.97;;;22.40;46.19
43312;BME280;30041;48.300;16.352;2023-04-23T08:19:57;99282.19;;;22.41;46.23
43312;BME280;30041;48.300;16.352;2023-04-23T08:22:22;99284.31;;;22.39;46.09
43312;BME280;30041;48.300;16.352;2023-04-23T08:24:48;99282.94;;;22.36;46.04
43312;BME280;30041;48.300;16.352;2023-04-23T08:27:13;99282.66;;;22.33;46.13
43312;BME280;30041;48.300;16.352;2023-04-23T08:29:39;99285.41;;;22.38;46.01
43312;BME280;30041;48.300;16.352;2023-04-23T08:32:04;99284.31;;;22.39;46.16
43312;BME280;30041;48.300;16.352;2023-04-23T08:34:30;99280.00;;;22.38;45.79
43312;BME280;30041;48.300;16.352;2023-04-23T08:36:55;99279.44;;;22.36;46.03
43312;BME280;30041;48.300;16.352;2023-04-23T08:39:21;99276.97;;;22.34;46.03
43312;BME280;30041;48.300;16.352;2023-04-23T08:41:51;99267.81;;;22.35;45.95
43312;BME280;30041;48.300;16.352;2023-04-23T08:44:21;99272.94;;;22.37;46.09
43312;BME280;30041;48.300;16.352;2023-04-23T08:46:48;99271.34;;;22.36;46.06
43312;BME280;30041;48.300;16.352;2023-04-23T08:49:15;99269.72;;;22.35;45.81
43312;BME280;30041;48.300;16.352;2023-04-23T08:51:45;99269.72;;;22.35;46.12
43312;BME280;30041;48.300;16.352;2023-04-23T08:54:15;99261.06;;;22.33;45.94
43312;BME280;30041;48.300;16.352;2023-04-23T08:56:43;99262.66;;;22.34;46.03
43312;BME280;30041;48.300;16.352;2023-04-23T08:59:10;99259.97;;;22.34;46.10
43312;BME280;30041;48.300;16.352;2023-04-23T09:01:35;99252.69;;;22.34;46.02
43312;BME280;30041;48.300;16.352;2023-04-23T09:04:01;99254.81;;;22.32;45.99
43312;BME280;30041;48.300;16.352;2023-04-23T09:06:27;99252.69;;;22.34;46.02
43312;BME280;30041;48.300;16.352;2023-04-23T09:08:54;99254.31;;;22.35;45.84
43312;BME280;30041;48.300;16.352;2023-04-23T09:11:22;99253.75;;;22.33;45.93
43312;BME280;30041;48.300;16.352;2023-04-23T09:13:48;99261.06;;;22.33;45.90
43312;BME280;30041;48.300;16.352;2023-04-23T09:16:14;99257.50;;;22.32;45.73
43312;BME280;30041;48.300;16.352;2023-04-23T09:18:41;99249.69;;;22.31;46.04
43312;BME280;30041;48.300;16.352;2023-04-23T09:21:06;99249.69;;;22.31;45.86
43312;BME280;30041;48.300;16.352;2023-04-23T09:23:37;99249.41;;;22.32;45.91
43312;BME280;30041;48.300;16.352;2023-04-23T09:26:05;99247.78;;;22.31;45.77
43312;BME280;30041;48.300;16.352;2023-04-23T09:28:37;99243.78;;;22.34;45.82
43312;BME280;30041;48.300;16.352;2023-04-23T09:31:06;99241.84;;;22.29;45.99
43312;BME280;30041;48.300;16.352;2023-04-23T09:33:34;99250.16;;;22.28;46.10
43312;BME280;30041;48.300;16.352;2023-04-23T09:36:08;99253.19;;;22.31;45.97
43312;BME280;30041;48.300;16.352;2023-04-23T09:38:34;99244.53;;;22.29;46.02
43312;BME280;30041;48.300;16.352;2023-04-23T09:41:20;99248.00;;;22.25;46.08
43312;BME280;30041;48.300;16.352;2023-04-23T09:43:47;99243.22;;;22.32;45.79
43312;BME280;30041;48.300;16.352;2023-04-23T09:46:12;99241.50;;;22.26;45.89
43312;BME280;30041;48.300;16.352;2023-04-23T09:48:41;99239.38;;;22.28;45.82
43312;BME280;30041;48.300;16.352;2023-04-23T09:51:06;99236.44;;;22.29;45.79
43312;BME280;30041;48.300;16.352;2023-04-23T09:53:42;99236.69;;;22.28;45.96
43312;BME280;30041;48.300;16.352;2023-04-23T09:56:07;99234.81;;;22.28;45.98
43312;BME280;30041;48.300;16.352;2023-04-23T09:58:33;99234.25;;;22.26;45.84
43312;BME280;30041;48.300;16.352;2023-04-23T10:01:08;99237.19;;;22.25;45.84
43312;BME280;30041;48.300;16.352;2023-04-23T10:03:33;99238.31;;;22.29;45.94
43312;BME280;30041;48.300;16.352;2023-04-23T10:05:59;99230.47;;;22.27;45.60
43312;BME280;30041;48.300;16.352;2023-04-23T10:08:24;99230.47;;;22.27;45.92
43312;BME280;30041;48.300;16.352;2023-04-23T10:10:50;99229.41;;;22.28;45.61
43312;BME280;30041;48.300;16.352;2023-04-23T10:13:17;99228.56;;;22.28;45.79
43312;BME280;30041;48.300;16.352;2023-04-23T10:15:45;99222.69;;;22.31;45.76
43312;BME280;30041;48.300;16.352;2023-04-23T10:18:13;99212.94;;;22.30;45.91
43312;BME280;30041;48.300;16.352;2023-04-23T10:20:39;99210.25;;;22.30;45.71
43312;BME280;30041;48.300;16.352;2023-04-23T10:23:07;99205.94;;;22.29;45.73
43312;BME280;30041;48.300;16.352;2023-04-23T10:25:35;99196.47;;;22.26;45.73
43312;BME280;30041;48.300;16.352;2023-04-23T10:28:02;99195.38;;;22.27;45.81
43312;BME280;30041;48.300;16.352;2023-04-23T10:30:29;99200.53;;;22.29;45.93
43312;BME280;30041;48.300;16.352;2023-04-23T10:32:55;99182.69;;;22.28;45.92
43312;BME280;30041;48.300;16.352;2023-04-23T10:35:21;99175.66;;;22.27;45.88
43312;BME280;30041;48.300;16.352;2023-04-23T10:37:47;99183.00;;;22.31;45.74
43312;BME280;30041;48.300;16.352;2023-04-23T10:40:16;99187.03;;;22.29;45.67
43312;BME280;30041;48.300;16.352;2023-04-23T10:42:43;99177.28;;;22.28;45.82
43312;BME280;30041;48.300;16.352;2023-04-23T10:45:17;99173.53;;;22.29;45.71
43312;BME280;30041;48.300;16.352;2023-04-23T10:47:44;99164.34;;;22.30;45.93
43312;BME280;30041;48.300;16.352;2023-04-23T10:50:27;99168.63;;;22.26;45.45
43312;BME280;30041;48.300;16.352;2023-04-23T10:52:54;99164.91;;;22.32;45.64
43312;BME280;30041;48.300;16.352;2023-04-23T10:55:22;99165.16;;;22.30;45.65
43312;BME280;30041;48.300;16.352;2023-04-23T10:57:58;99158.47;;;22.33;45.62
43312;BME280;30041;48.300;16.352;2023-04-23T11:00:29;99157.56;;;22.27;45.79
43312;BME280;30041;48.300;16.352;2023-04-23T11:02:54;99160.59;;;22.31;45.83
43312;BME280;30041;48.300;16.352;2023-04-23T11:05:21;99160.59;;;22.31;45.69
43312;BME280;30041;48.300;16.352;2023-04-23T11:08:06;99157.81;;;22.26;46.03
43312;BME280;30041;48.300;16.352;2023-04-23T11:10:32;99160.31;;;22.32;45.96
43312;BME280;30041;48.300;16.352;2023-04-23T11:13:27;99160.59;;;22.31;45.67
43312;BME280;30041;48.300;16.352;2023-04-23T11:19:07;99157.94;;;22.36;45.62
43312;BME280;30041;48.300;16.352;2023-04-23T11:24:24;99139.03;;;22.36;45.70
43312;BME280;30041;48.300;16.352;2023-04-23T11:26:51;99142.56;;;22.36;45.67
43312;BME280;30041;48.300;16.352;2023-04-23T11:29:18;99140.94;;;22.35;45.78
43312;BME280;30041;48.300;16.352;2023-04-23T11:31:45;99136.34;;;22.36;45.71
43312;BME280;30041;48.300;16.352;2023-04-23T11:34:10;99135.25;;;22.37;45.60
43312;BME280;30041;48.300;16.352;2023-04-23T11:36:36;99131.06;;;22.46;45.27
43312;BME280;30041;48.300;16.352;2023-04-23T11:39:02;99126.66;;;22.40;45.30
43312;BME280;30041;48.300;16.352;2023-04-23T11:41:28;99128.84;;;22.43;46.34
43312;BME280;30041;48.300;16.352;2023-04-23T11:43:53;99119.06;;;22.37;46.03
43312;BME280;30041;48.300;16.352;2023-04-23T11:46:19;99123.38;;;22.33;46.51
43312;BME280;30041;48.300;16.352;2023-04-23T11:48:45;99122.84;;;22.36;46.36
43312;BME280;30041;48.300;16.352;2023-04-23T11:51:12;99113.91;;;22.63;45.82
43312;BME280;30041;48.300;16.352;2023-04-23T11:53:47;99110.19;;;22.74;45.21
43312;BME280;30041;48.300;16.352;2023-04-23T11:56:15;99107.88;;;22.88;44.81
43312;BME280;30041;48.300;16.352;2023-04-23T11:58:41;99107.38;;;22.58;42.87
43312;BME280;30041;48.300;16.352;2023-04-23T12:01:06;99110.63;;;22.61;42.92
43312;BME280;30041;48.300;16.352;2023-04-23T12:03:33;99113.25;;;22.50;41.77
43312;BME280;30041;48.300;16.352;2023-04-23T12:05:58;99098.66;;;22.46;41.37
43312;BME280;30041;48.300;16.352;2023-04-23T12:08:24;99105.03;;;22.35;41.63
43312;BME280;30041;48.300;16.352;2023-04-23T12:10:51;99105.03;;;22.35;42.05
43312;BME280;30041;48.300;16.352;2023-04-23T12:13:20;99096.38;;;22.33;42.49
43312;BME280;30041;48.300;16.352;2023-04-23T12:15:51;99092.56;;;22.29;43.00
43312;BME280;30041;48.300;16.352;2023-04-23T12:18:17;99094.06;;;22.20;42.77
43312;BME280;30041;48.300;16.352;2023-04-23T12:20:44;99093.31;;;22.24;43.03
43312;BME280;30041;48.300;16.352;2023-04-23T12:23:10;99096.25;;;22.23;43.25
43312;BME280;30041;48.300;16.352;2023-04-23T12:25:35;99094.38;;;22.23;43.00
43312;BME280;30041;48.300;16.352;2023-04-23T12:28:02;99095.19;;;22.24;42.71
43312;BME280;30041;48.300;16.352;2023-04-23T12:30:32;99092.47;;;22.24;42.50
43312;BME280;30041;48.300;16.352;2023-04-23T12:32:59;99087.34;;;22.22;42.87
43312;BME280;30041;48.300;16.352;2023-04-23T12:35:57;99076.41;;;22.12;42.48
43312;BME280;30041;48.300;16.352;2023-04-23T12:38:24;99082.94;;;22.16;42.49
43312;BME280;30041;48.300;16.352;2023-04-23T12:40:51;99083.50;;;22.18;42.84
43312;BME280;30041;48.300;16.352;2023-04-23T12:43:16;99084.06;;;22.20;42.91
43312;BME280;30041;48.300;16.352;2023-04-23T12:45:42;99068.94;;;22.19;42.65
43312;BME280;30041;48.300;16.352;2023-04-23T12:48:07;99073.28;;;22.20;42.63
43312;BME280;30041;48.300;16.352;2023-04-23T12:50:33;99069.09;;;22.34;44.11
43312;BME280;30041;48.300;16.352;2023-04-23T12:52:58;99063.44;;;22.36;43.29